sensor_id;sensor_type;location;lat;lon;timestamp;pressure;altitude;pressure_sealevel;temperature;humidity
10006;BME280;5042;42.626;23.382;2023-06-22T00:02:02;94826.13;;;18.37;100.00
10006;BME280;5042;42.626;23.382;2023-06-22T00:04:29;94832.09;;;18.33;100.00
10006;BME280;5042;42.626;23.382;2023-06-22T00:06:55;94824.44;;;18.25;100.00
10006;BME280;5042;42.626;23.382;2023-06-22T00:09:22;94827.81;;;18.20;100.00
10006;BME280;5042;42.626;23.382;2023-06-22T00:11:49;94827.66;;;18.15;100.00
10006;BME280;5042;42.626;23.382;2023-06-22T00:14:15;94831.09;;;18.04;100.00
10006;BME280;5042;42.626;23.382;2023-06-22T00:16:44;94827.47;;;17.98;100.00
10006;BME280;5042;42.626;23.382;2023-06-22T00:19:14;94822.84;;;17.93;100.00
10006;BME280;5042;42.626;23.382;2023-06-22T00:21:40;94817.84;;;17.85;100.00
10006;BME280;5042;42.626;23.382;2023-06-22T00:24:07;94818.78;;;17.72;100.00
10006;BME280;5042;42.626;23.382;2023-06-22T00:26:34;94810.41;;;17.57;100.00
10006;BME280;5042;42.626;23.382;2023-06-22T00:29:01;94812.19;;;17.45;100.00
10006;BME280;5042;42.626;23.382;2023-06-22T00:31:28;94801.41;;;17.58;100.00
10006;BME280;5042;42.626;23.382;2023-06-22T00:33:56;94798.47;;;17.66;100.00
10006;BME280;5042;42.626;23.382;2023-06-22T00:36:23;94792.97;;;17.68;100.00
10006;BME280;5042;42.626;23.382;2023-06-22T00:38:50;94797.94;;;17.76;100.00
10006;BME280;5042;42.626;23.382;2023-06-22T00:41:17;94800.00;;;17.74;100.00
10006;BME280;5042;42.626;23.382;2023-06-22T00:43:45;94794.34;;;17.70;100.00
10006;BME280;5042;42.626;23.382;2023-06-22T00:46:12;94786.09;;;17.60;100.00
10006;BME280;5042;42.626;23.382;2023-06-22T00:48:40;94796.03;;;17.65;100.00
10006;BME280;5042;42.626;23.382;2023-06-22T00:51:11;94790.31;;;17.68;100.00
10006;BME280;5042;42.626;23.382;2023-06-22T00:53:38;94798.19;;;17.56;100.00
10006;BME280;5042;42.626;23.382;2023-06-22T00:56:06;94790.97;;;17.45;100.00
10006;BME280;5042;42.626;23.382;2023-06-22T00:58:35;94792.06;;;17.55;100.00
10006;BME280;5042;42.626;23.382;2023-06-22T01:01:02;94792.50;;;17.52;100.00
10006;BME280;5042;42.626;23.382;2023-06-22T01:03:28;94784.03;;;17.44;100.00
10006;BME280;5042;42.626;23.382;2023-06-22T01:06:02;94781.19;;;17.45;100.00
10006;BME280;5042;42.626;23.382;2023-06-22T01:08:39;94799.41;;;17.53;100.00
10006;BME280;5042;42.626;23.382;2023-06-22T01:11:12;94788.91;;;17.47;100.00
10006;BME280;5042;42.626;23.382;2023-06-22T01:13:46;94753.28;;;17.24;100.00
10006;BME280;5042;42.626;23.382;2023-06-22T01:16:18;94792.72;;;17.51;100.00
10006;BME280;5042;42.626;23.382;2023-06-22T01:18:47;94796.34;;;17.56;100.00
10006;BME280;5042;42.626;23.382;2023-06-22T01:21:19;94802.38;;;17.64;100.00
10006;BME280;5042;42.626;23.382;2023-06-22T01:24:02;94800.84;;;17.37;100.00
10006;BME280;5042;42.626;23.382;2023-06-22T01:26:38;94805.09;;;17.38;100.00
10006;BME280;5042;42.626;23.382;2023-06-22T01:29:11;94808.19;;;17.35;100.00
10006;BME280;5042;42.626;23.382;2023-06-22T01:31:39;94806.94;;;17.38;100.00
10006;BME280;5042;42.626;23.382;2023-06-22T01:34:08;94804.00;;;17.28;100.00
10006;BME280;5042;42.626;23.382;2023-06-22T01:36:36;94811.78;;;17.41;100.00
10006;BME280;5042;42.626;23.382;2023-06-22T01:39:05;94753.72;;;17.03;100.00
10006;BME280;5042;42.626;23.382;2023-06-22T01:41:37;94754.75;;;17.02;100.00
10006;BME280;5042;42.626;23.382;2023-06-22T01:44:05;94812.19;;;17.45;100.00
10006;BME280;5042;42.626;23.382;2023-06-22T01:46:34;94793.63;;;17.45;100.00
10006;BME280;5042;42.626;23.382;2023-06-22T01:49:02;94801.13;;;17.48;100.00
10006;BME280;5042;42.626;23.382;2023-06-22T01:51:29;94814.59;;;17.46;100.00
10006;BME280;5042;42.626;23.382;2023-06-22T01:53:56;94815.78;;;17.50;100.00
10006;BME280;5042;42.626;23.382;2023-06-22T01:56:22;94826.03;;;17.47;100.00
10006;BME280;5042;42.626;23.382;2023-06-22T01:58:57;94815.09;;;17.36;100.00
10006;BME280;5042;42.626;23.382;2023-06-22T02:01:29;94822.34;;;17.48;100.00
10006;BME280;5042;42.626;23.382;2023-06-22T02:04:06;94812.75;;;17.65;100.00
10006;BME280;5042;42.626;23.382;2023-06-22T02:06:37;94798.94;;;17.45;100.00
10006;BME280;5042;42.626;23.382;2023-06-22T02:09:08;94821.81;;;17.57;100.00
10006;BME280;5042;42.626;23.382;2023-06-22T02:11:36;94833.00;;;17.59;100.00
10006;BME280;5042;42.626;23.382;2023-06-22T02:14:05;94829.16;;;17.55;100.00
10006;BME280;5042;42.626;23.382;2023-06-22T02:16:33;94829.28;;;17.49;100.00
10006;BME280;5042;42.626;23.382;2023-06-22T02:19:02;94829.69;;;17.46;100.00
10006;BME280;5042;42.626;23.382;2023-06-22T02:21:30;94740.63;;;17.08;100.00
10006;BME280;5042;42.626;23.382;2023-06-22T02:23:57;94816.28;;;17.41;100.00
10006;BME280;5042;42.626;23.382;2023-06-22T02:26:24;94815.19;;;17.30;100.00
10006;BME280;5042;42.626;23.382;2023-06-22T02:28:51;94817.41;;;17.33;100.00
10006;BME280;5042;42.626;23.382;2023-06-22T02:31:18;94827.19;;;17.32;100.00
10006;BME280;5042;42.626;23.382;2023-06-22T02:33:45;94832.66;;;17.37;100.00
10006;BME280;5042;42.626;23.382;2023-06-22T02:36:15;94823.97;;;17.30;100.00
10006;BME280;5042;42.626;23.382;2023-06-22T02:38:41;94809.00;;;17.36;100.00
10006;BME280;5042;42.626;23.382;2023-06-22T02:41:13;94812.69;;;17.35;100.00
10006;BME280;5042;42.626;23.382;2023-06-22T02:43:43;94815.50;;;17.40;100.00
10006;BME280;5042;42.626;23.382;2023-06-22T02:46:11;94814.25;;;17.43;100.00
10006;BME280;5042;42.626;23.382;2023-06-22T02:48:38;94821.31;;;17.49;100.00
10006;BME280;5042;42.626;23.382;2023-06-22T02:51:05;94828.50;;;17.60;100.00
10006;BME280;5042;42.626;23.382;2023-06-22T02:53:33;94811.28;;;17.51;100.00
10006;BME280;5042;42.626;23.382;2023-06-22T02:56:01;94831.47;;;17.70;100.00
10006;BME280;5042;42.626;23.382;2023-06-22T02:58:28;94839.56;;;17.57;100.00
10006;BME280;5042;42.626;23.382;2023-06-22T03:00:55;94826.38;;;17.50;100.00
10006;BME280;5042;42.626;23.382;2023-06-22T03:03:22;94825.50;;;17.56;100.00
10006;BME280;5042;42.626;23.382;2023-06-22T03:05:51;94826.44;;;17.62;100.00
10006;BME280;5042;42.626;23.382;2023-06-22T03:08:18;94833.38;;;17.63;100.00
10006;BME280;5042;42.626;23.382;2023-06-22T03:10:46;94827.91;;;17.58;100.00
10006;BME280;5042;42.626;23.382;2023-06-22T03:13:13;94823.50;;;17.52;100.00
10006;BME280;5042;42.626;23.382;2023-06-22T03:15:40;94826.44;;;17.44;100.00
10006;BME280;5042;42.626;23.382;2023-06-22T03:18:06;94833.84;;;17.42;100.00
10006;BME280;5042;42.626;23.382;2023-06-22T03:20:33;94842.00;;;17.40;100.00
10006;BME280;5042;42.626;23.382;2023-06-22T03:23:00;94845.72;;;17.51;100.00
10006;BME280;5042;42.626;23.382;2023-06-22T03:25:27;94860.63;;;17.52;100.00
10006;BME280;5042;42.626;23.382;2023-06-22T03:27:55;94863.13;;;17.47;100.00
10006;BME280;5042;42.626;23.382;2023-06-22T03:30:22;94864.75;;;17.48;100.00
10006;BME280;5042;42.626;23.382;2023-06-22T03:32:48;94862.03;;;17.54;100.00
10006;BME280;5042;42.626;23.382;2023-06-22T03:35:15;94855.78;;;17.49;100.00
10006;BME280;5042;42.626;23.382;2023-06-22T03:37:42;94857.84;;;17.47;100.00
10006;BME280;5042;42.626;23.382;2023-06-22T03:40:09;94870.19;;;17.53;100.00
10006;BME280;5042;42.626;23.382;2023-06-22T03:42:36;94859.81;;;17.70;100.00
10006;BME280;5042;42.626;23.382;2023-06-22T03:45:06;94862.03;;;17.73;100.00
10006;BME280;5042;42.626;23.382;2023-06-22T03:47:32;94866.25;;;17.80;100.00
10006;BME280;5042;42.626;23.382;2023-06-22T03:49:59;94865.13;;;17.88;100.00
10006;BME280;5042;42.626;23.382;2023-06-22T03:52:29;94869.31;;;17.96;100.00
10006;BME280;5042;42.626;23.382;2023-06-22T03:54:56;94873.75;;;18.02;100.00
10006;BME280;5042;42.626;23.382;2023-06-22T03:57:22;94870.44;;;18.07;100.00
10006;BME280;5042;42.626;23.382;2023-06-22T03:59:49;94870.94;;;18.15;100.00
10006;BME280;5042;42.626;23.382;2023-06-22T04:02:17;94874.88;;;18.25;100.00
10006;BME280;5042;42.626;23.382;2023-06-22T04:04:44;94879.13;;;18.44;100.00
10006;BME280;5042;42.626;23.382;2023-06-22T04:07:11;94883.34;;;18.63;100.00
10006;BME280;5042;42.626;23.382;2023-06-22T04:09:38;94885.84;;;19.00;100.00
10006;BME280;5042;42.626;23.382;2023-06-22T04:12:06;94884.16;;;19.18;100.00
10006;BME280;5042;42.626;23.382;2023-06-22T04:14:34;94876.06;;;19.36;100.00
10006;BME280;5042;42.626;23.382;2023-06-22T04:17:01;94878.25;;;19.51;100.00
10006;BME280;5042;42.626;23.382;2023-06-22T04:19:29;94878.97;;;19.70;100.00
10006;BME280;5042;42.626;23.382;2023-06-22T04:21:56;94878.91;;;19.94;100.00
10006;BME280;5042;42.626;23.382;2023-06-22T04:24:23;94872.94;;;20.15;100.00
10006;BME280;5042;42.626;23.382;2023-06-22T04:26:49;94872.38;;;20.42;100.00
10006;BME280;5042;42.626;23.382;2023-06-22T04:29:20;94867.47;;;20.79;100.00
10006;BME280;5042;42.626;23.382;2023-06-22T04:31:55;94842.44;;;21.14;100.00
10006;BME280;5042;42.626;23.382;2023-06-22T04:34:24;94845.34;;;21.12;100.00
10006;BME280;5042;42.626;23.382;2023-06-22T04:36:53;94854.72;;;20.98;100.00
10006;BME280;5042;42.626;23.382;2023-06-22T04:39:20;94842.25;;;21.21;100.00
10006;BME280;5042;42.626;23.382;2023-06-22T04:41:47;94845.69;;;21.72;100.00
10006;BME280;5042;42.626;23.382;2023-06-22T04:44:15;94844.19;;;22.03;100.00
10006;BME280;5042;42.626;23.382;2023-06-22T04:46:49;94847.97;;;22.29;100.00
10006;BME280;5042;42.626;23.382;2023-06-22T04:49:20;94833.63;;;22.62;100.00
10006;BME280;5042;42.626;23.382;2023-06-22T04:51:47;94852.06;;;23.23;100.00
10006;BME280;5042;42.626;23.382;2023-06-22T04:54:18;94853.38;;;22.94;100.00
10006;BME280;5042;42.626;23.382;2023-06-22T04:56:45;94851.16;;;22.26;100.00
10006;BME280;5042;42.626;23.382;2023-06-22T04:59:12;94860.13;;;22.20;100.00
10006;BME280;5042;42.626;23.382;2023-06-22T05:01:39;94856.09;;;22.67;100.00
10006;BME280;5042;42.626;23.382;2023-06-22T05:04:06;94876.69;;;23.25;100.00
10006;BME280;5042;42.626;23.382;2023-06-22T05:06:33;94872.59;;;23.55;100.00
10006;BME280;5042;42.626;23.382;2023-06-22T05:09:00;94878.16;;;23.91;100.00
10006;BME280;5042;42.626;23.382;2023-06-22T05:11:28;94892.19;;;24.08;100.00
10006;BME280;5042;42.626;23.382;2023-06-22T05:13:55;94884.22;;;24.34;100.00
10006;BME280;5042;42.626;23.382;2023-06-22T05:16:22;94878.97;;;24.70;100.00
10006;BME280;5042;42.626;23.382;2023-06-22T05:18:51;94886.28;;;25.05;100.00
10006;BME280;5042;42.626;23.382;2023-06-22T05:21:22;94877.19;;;25.37;100.00
10006;BME280;5042;42.626;23.382;2023-06-22T05:23:49;94881.16;;;25.60;100.00
10006;BME280;5042;42.626;23.382;2023-06-22T05:26:16;94882.78;;;25.66;100.00
10006;BME280;5042;42.626;23.382;2023-06-22T05:28:45;94892.47;;;25.16;100.00
10006;BME280;5042;42.626;23.382;2023-06-22T05:31:12;94894.56;;;24.68;100.00
10006;BME280;5042;42.626;23.382;2023-06-22T05:33:39;94896.44;;;24.88;100.00
10006;BME280;5042;42.626;23.382;2023-06-22T05:36:06;94899.44;;;24.96;100.00
10006;BME280;5042;42.626;23.382;2023-06-22T05:38:33;94897.25;;;24.78;100.00
10006;BME280;5042;42.626;23.382;2023-06-22T05:41:00;94912.69;;;24.45;100.00
10006;BME280;5042;42.626;23.382;2023-06-22T05:43:26;94910.78;;;24.36;100.00
10006;BME280;5042;42.626;23.382;2023-06-22T05:45:55;94908.72;;;23.95;100.00
10006;BME280;5042;42.626;23.382;2023-06-22T05:48:21;94919.50;;;24.10;100.00
10006;BME280;5042;42.626;23.382;2023-06-22T05:50:48;94917.16;;;24.29;100.00
10006;BME280;5042;42.626;23.382;2023-06-22T05:53:15;94921.38;;;24.68;100.00
10006;BME280;5042;42.626;23.382;2023-06-22T05:55:42;94916.84;;;24.94;100.00
10006;BME280;5042;42.626;23.382;2023-06-22T05:58:09;94927.91;;;25.54;100.00
10006;BME280;5042;42.626;23.382;2023-06-22T06:00:35;94917.59;;;26.17;100.00
10006;BME280;5042;42.626;23.382;2023-06-22T06:03:03;94925.53;;;26.58;100.00
10006;BME280;5042;42.626;23.382;2023-06-22T06:05:33;94918.56;;;26.42;100.00
10006;BME280;5042;42.626;23.382;2023-06-22T06:08:01;94923.03;;;26.72;100.00
10006;BME280;5042;42.626;23.382;2023-06-22T06:10:28;94926.91;;;26.95;100.00
10006;BME280;5042;42.626;23.382;2023-06-22T06:12:55;94914.09;;;27.21;100.00
10006;BME280;5042;42.626;23.382;2023-06-22T06:15:21;94916.41;;;27.38;97.79
10006;BME280;5042;42.626;23.382;2023-06-22T06:17:49;94913.22;;;27.31;100.00
10006;BME280;5042;42.626;23.382;2023-06-22T06:20:18;94902.94;;;27.38;97.05
10006;BME280;5042;42.626;23.382;2023-06-22T06:22:45;94865.06;;;27.30;98.40
10006;BME280;5042;42.626;23.382;2023-06-22T06:25:12;94889.88;;;27.56;100.00
10006;BME280;5042;42.626;23.382;2023-06-22T06:27:42;94907.22;;;26.60;100.00
10006;BME280;5042;42.626;23.382;2023-06-22T06:30:09;94909.81;;;26.16;100.00
10006;BME280;5042;42.626;23.382;2023-06-22T06:32:36;94907.56;;;26.43;100.00
10006;BME280;5042;42.626;23.382;2023-06-22T06:35:04;94904.81;;;27.03;100.00
10006;BME280;5042;42.626;23.382;2023-06-22T06:37:35;94901.91;;;27.63;100.00
10006;BME280;5042;42.626;23.382;2023-06-22T06:42:30;94908.81;;;27.75;100.00
10006;BME280;5042;42.626;23.382;2023-06-22T06:44:57;94910.47;;;27.70;100.00
10006;BME280;5042;42.626;23.382;2023-06-22T06:47:24;94899.94;;;27.74;100.00
10006;BME280;5042;42.626;23.382;2023-06-22T06:49:50;94892.56;;;27.85;100.00
10006;BME280;5042;42.626;23.382;2023-06-22T06:52:17;94893.19;;;27.77;100.00
10006;BME280;5042;42.626;23.382;2023-06-22T06:54:46;94897.28;;;27.98;100.00
10006;BME280;5042;42.626;23.382;2023-06-22T06:57:13;94886.22;;;28.00;100.00
10006;BME280;5042;42.626;23.382;2023-06-22T06:59:40;94893.78;;;28.46;100.00
10006;BME280;5042;42.626;23.382;2023-06-22T07:02:07;94893.22;;;28.25;99.08
10006;BME280;5042;42.626;23.382;2023-06-22T07:04:34;94896.63;;;28.30;100.00
10006;BME280;5042;42.626;23.382;2023-06-22T07:07:01;94893.78;;;28.46;94.81
10006;BME280;5042;42.626;23.382;2023-06-22T07:09:28;94882.31;;;27.87;100.00
10006;BME280;5042;42.626;23.382;2023-06-22T07:11:56;94881.22;;;27.59;100.00
10006;BME280;5042;42.626;23.382;2023-06-22T07:14:23;94894.00;;;27.08;100.00
10006;BME280;5042;42.626;23.382;2023-06-22T07:16:50;94889.25;;;26.40;100.00
10006;BME280;5042;42.626;23.382;2023-06-22T07:19:24;94866.88;;;25.85;100.00
10006;BME280;5042;42.626;23.382;2023-06-22T07:21:51;94876.28;;;26.03;100.00
10006;BME280;5042;42.626;23.382;2023-06-22T07:24:19;94893.81;;;26.55;100.00
10006;BME280;5042;42.626;23.382;2023-06-22T07:26:46;94890.25;;;27.04;100.00
10006;BME280;5042;42.626;23.382;2023-06-22T07:29:15;94882.88;;;27.25;100.00
10006;BME280;5042;42.626;23.382;2023-06-22T07:31:41;94887.34;;;27.35;100.00
10006;BME280;5042;42.626;23.382;2023-06-22T07:34:08;94882.56;;;27.90;100.00
10006;BME280;5042;42.626;23.382;2023-06-22T07:36:35;94893.53;;;28.42;100.00
10006;BME280;5042;42.626;23.382;2023-06-22T07:39:02;94884.50;;;28.76;100.00
10006;BME280;5042;42.626;23.382;2023-06-22T07:41:29;94840.16;;;28.20;99.89
10006;BME280;5042;42.626;23.382;2023-06-22T07:43:56;94894.53;;;28.70;100.00
10006;BME280;5042;42.626;23.382;2023-06-22T07:46:24;94906.72;;;29.25;100.00
10006;BME280;5042;42.626;23.382;2023-06-22T07:48:51;94902.00;;;28.98;94.24
10006;BME280;5042;42.626;23.382;2023-06-22T07:51:18;94902.19;;;28.63;95.74
10006;BME280;5042;42.626;23.382;2023-06-22T07:53:45;94907.88;;;28.38;100.00
10006;BME280;5042;42.626;23.382;2023-06-22T07:56:12;94904.16;;;28.58;96.59
10006;BME280;5042;42.626;23.382;2023-06-22T07:58:39;94897.22;;;28.51;98.02
10006;BME280;5042;42.626;23.382;2023-06-22T08:01:05;94890.59;;;29.01;100.00
10006;BME280;5042;42.626;23.382;2023-06-22T08:03:34;94901.56;;;29.42;87.21
10006;BME280;5042;42.626;23.382;2023-06-22T08:06:00;94892.19;;;29.86;98.95
10006;BME280;5042;42.626;23.382;2023-06-22T08:08:27;94898.22;;;29.83;85.85
10006;BME280;5042;42.626;23.382;2023-06-22T08:10:54;94885.81;;;30.10;89.95
10006;BME280;5042;42.626;23.382;2023-06-22T08:13:21;94891.28;;;30.74;81.35
10006;BME280;5042;42.626;23.382;2023-06-22T08:15:47;94895.72;;;31.06;75.38
10006;BME280;5042;42.626;23.382;2023-06-22T08:18:14;94889.34;;;31.02;82.98
10006;BME280;5042;42.626;23.382;2023-06-22T08:20:43;94883.66;;;31.12;82.83
10006;BME280;5042;42.626;23.382;2023-06-22T08:23:09;94890.31;;;31.28;83.53
10006;BME280;5042;42.626;23.382;2023-06-22T08:25:36;94885.81;;;31.24;71.54
10006;BME280;5042;42.626;23.382;2023-06-22T08:28:04;94863.22;;;31.06;71.56
10006;BME280;5042;42.626;23.382;2023-06-22T08:30:30;94878.94;;;30.81;72.40
10006;BME280;5042;42.626;23.382;2023-06-22T08:32:57;94871.59;;;30.32;76.34
10006;BME280;5042;42.626;23.382;2023-06-22T08:35:24;94864.16;;;29.82;82.10
10006;BME280;5042;42.626;23.382;2023-06-22T08:37:52;94857.88;;;29.07;81.74
10006;BME280;5042;42.626;23.382;2023-06-22T08:40:20;94855.38;;;28.92;86.61
10006;BME280;5042;42.626;23.382;2023-06-22T08:42:47;94873.19;;;28.93;87.82
10006;BME280;5042;42.626;23.382;2023-06-22T08:45:14;94868.97;;;28.44;91.26
10006;BME280;5042;42.626;23.382;2023-06-22T08:47:42;94842.06;;;28.20;96.17
10006;BME280;5042;42.626;23.382;2023-06-22T08:50:09;94852.03;;;27.95;89.71
10006;BME280;5042;42.626;23.382;2023-06-22T08:52:36;94877.16;;;27.90;92.47
10006;BME280;5042;42.626;23.382;2023-06-22T08:55:05;94869.63;;;27.87;94.20
10006;BME280;5042;42.626;23.382;2023-06-22T08:57:32;94869.84;;;27.67;95.66
10006;BME280;5042;42.626;23.382;2023-06-22T08:59:59;94862.78;;;27.71;99.85
10006;BME280;5042;42.626;23.382;2023-06-22T09:02:26;94867.19;;;28.15;100.00
10006;BME280;5042;42.626;23.382;2023-06-22T09:04:56;94861.88;;;28.53;96.22
10006;BME280;5042;42.626;23.382;2023-06-22T09:07:23;94862.22;;;28.84;88.76
10006;BME280;5042;42.626;23.382;2023-06-22T09:09:51;94859.63;;;28.79;94.05
10006;BME280;5042;42.626;23.382;2023-06-22T09:12:20;94866.03;;;29.21;89.48
10006;BME280;5042;42.626;23.382;2023-06-22T09:14:51;94856.84;;;29.69;98.23
10006;BME280;5042;42.626;23.382;2023-06-22T09:17:18;94854.06;;;30.01;84.65
10006;BME280;5042;42.626;23.382;2023-06-22T09:19:44;94859.09;;;30.36;94.01
10006;BME280;5042;42.626;23.382;2023-06-22T09:22:13;94860.09;;;30.40;84.32
10006;BME280;5042;42.626;23.382;2023-06-22T09:24:40;94860.00;;;30.31;87.74
10006;BME280;5042;42.626;23.382;2023-06-22T09:27:06;94864.38;;;30.55;89.62
10006;BME280;5042;42.626;23.382;2023-06-22T09:29:35;94857.81;;;31.06;82.66
10006;BME280;5042;42.626;23.382;2023-06-22T09:32:01;94855.75;;;31.25;80.83
10006;BME280;5042;42.626;23.382;2023-06-22T09:34:28;94873.91;;;30.89;73.58
10006;BME280;5042;42.626;23.382;2023-06-22T09:36:56;94866.53;;;30.67;73.23
10006;BME280;5042;42.626;23.382;2023-06-22T09:39:25;94876.09;;;30.50;72.26
10006;BME280;5042;42.626;23.382;2023-06-22T09:41:52;94867.81;;;30.33;72.73
10006;BME280;5042;42.626;23.382;2023-06-22T09:44:19;94871.47;;;30.23;72.95
10006;BME280;5042;42.626;23.382;2023-06-22T09:46:47;94867.19;;;30.36;78.84
10006;BME280;5042;42.626;23.382;2023-06-22T09:49:14;94862.16;;;30.57;74.69
10006;BME280;5042;42.626;23.382;2023-06-22T09:51:40;94860.81;;;30.68;75.15
10006;BME280;5042;42.626;23.382;2023-06-22T09:54:07;94870.59;;;30.92;70.99
10006;BME280;5042;42.626;23.382;2023-06-22T09:56:34;94859.03;;;31.22;80.72
10006;BME280;5042;42.626;23.382;2023-06-22T09:59:03;94868.41;;;31.61;67.40
10006;BME280;5042;42.626;23.382;2023-06-22T10:01:29;94861.13;;;32.02;64.34
10006;BME280;5042;42.626;23.382;2023-06-22T10:03:57;94846.09;;;31.96;61.09
10006;BME280;5042;42.626;23.382;2023-06-22T10:06:24;94858.91;;;32.04;56.65
10006;BME280;5042;42.626;23.382;2023-06-22T10:08:51;94849.72;;;32.31;66.01
10006;BME280;5042;42.626;23.382;2023-06-22T10:11:18;94857.16;;;32.65;59.95
10006;BME280;5042;42.626;23.382;2023-06-22T10:13:45;94864.81;;;32.55;57.23
10006;BME280;5042;42.626;23.382;2023-06-22T10:16:12;94854.06;;;32.49;60.33
10006;BME280;5042;42.626;23.382;2023-06-22T10:18:38;94851.78;;;32.34;60.63
10006;BME280;5042;42.626;23.382;2023-06-22T10:21:06;94845.84;;;32.06;61.00
10006;BME280;5042;42.626;23.382;2023-06-22T10:23:33;94847.28;;;31.81;62.08
10006;BME280;5042;42.626;23.382;2023-06-22T10:26:00;94842.06;;;31.93;64.76
10006;BME280;5042;42.626;23.382;2023-06-22T10:28:27;94854.09;;;31.69;63.41
10006;BME280;5042;42.626;23.382;2023-06-22T10:30:53;94843.75;;;31.72;56.92
10006;BME280;5042;42.626;23.382;2023-06-22T10:33:20;94849.06;;;31.85;58.54
10006;BME280;5042;42.626;23.382;2023-06-22T10:35:47;94833.91;;;31.84;60.12
10006;BME280;5042;42.626;23.382;2023-06-22T10:38:15;94838.16;;;31.99;64.24
10006;BME280;5042;42.626;23.382;2023-06-22T10:40:42;94846.63;;;32.06;61.87
10006;BME280;5042;42.626;23.382;2023-06-22T10:43:09;94838.34;;;32.11;60.45
10006;BME280;5042;42.626;23.382;2023-06-22T10:45:35;94838.34;;;32.11;54.62
10006;BME280;5042;42.626;23.382;2023-06-22T10:48:02;94837.28;;;31.90;54.55
10006;BME280;5042;42.626;23.382;2023-06-22T10:50:29;94828.41;;;31.98;62.77
10006;BME280;5042;42.626;23.382;2023-06-22T10:52:56;94835.59;;;32.03;54.00
10006;BME280;5042;42.626;23.382;2023-06-22T10:55:24;94823.97;;;32.02;58.73
10006;BME280;5042;42.626;23.382;2023-06-22T10:57:51;94830.81;;;32.00;59.05
10006;BME280;5042;42.626;23.382;2023-06-22T11:00:18;94822.91;;;31.81;53.94
10006;BME280;5042;42.626;23.382;2023-06-22T11:02:45;94819.84;;;32.14;63.53
10006;BME280;5042;42.626;23.382;2023-06-22T11:05:11;94825.44;;;32.17;54.63
10006;BME280;5042;42.626;23.382;2023-06-22T11:07:41;94809.75;;;31.65;53.84
10006;BME280;5042;42.626;23.382;2023-06-22T11:10:09;94814.66;;;31.55;59.02
10006;BME280;5042;42.626;23.382;2023-06-22T11:12:37;94821.31;;;31.80;58.20
10006;BME280;5042;42.626;23.382;2023-06-22T11:15:05;94821.03;;;31.90;59.71
10006;BME280;5042;42.626;23.382;2023-06-22T11:17:32;94818.44;;;31.85;55.90
10006;BME280;5042;42.626;23.382;2023-06-22T11:19:58;94818.72;;;31.75;55.41
10006;BME280;5042;42.626;23.382;2023-06-22T11:22:26;94813.97;;;31.89;56.31
10006;BME280;5042;42.626;23.382;2023-06-22T11:24:53;94816.84;;;31.84;56.25
10006;BME280;5042;42.626;23.382;2023-06-22T11:27:20;94810.31;;;31.45;54.37
10006;BME280;5042;42.626;23.382;2023-06-22T11:29:48;94802.16;;;31.22;56.41
10006;BME280;5042;42.626;23.382;2023-06-22T11:32:15;94795.69;;;31.32;64.83
10006;BME280;5042;42.626;23.382;2023-06-22T11:34:41;94793.78;;;31.33;66.84
10006;BME280;5042;42.626;23.382;2023-06-22T11:37:08;94796.97;;;31.57;63.08
10006;BME280;5042;42.626;23.382;2023-06-22T11:39:35;94789.81;;;31.61;58.18
10006;BME280;5042;42.626;23.382;2023-06-22T11:42:02;94793.94;;;31.27;60.96
10006;BME280;5042;42.626;23.382;2023-06-22T11:44:29;94798.00;;;31.16;58.55
10006;BME280;5042;42.626;23.382;2023-06-22T11:46:57;94785.53;;;31.06;61.30
10006;BME280;5042;42.626;23.382;2023-06-22T11:49:26;94798.13;;;30.89;53.91
10006;BME280;5042;42.626;23.382;2023-06-22T11:51:53;94789.38;;;30.69;55.85
10006;BME280;5042;42.626;23.382;2023-06-22T11:54:19;94779.38;;;30.56;59.53
10006;BME280;5042;42.626;23.382;2023-06-22T11:56:46;94773.97;;;30.56;56.77
10006;BME280;5042;42.626;23.382;2023-06-22T11:59:13;94774.59;;;30.53;57.68
10006;BME280;5042;42.626;23.382;2023-06-22T12:01:40;94774.28;;;30.54;57.41
10006;BME280;5042;42.626;23.382;2023-06-22T12:04:08;94771.78;;;30.44;62.58
10006;BME280;5042;42.626;23.382;2023-06-22T12:06:37;94782.91;;;30.79;64.43
10006;BME280;5042;42.626;23.382;2023-06-22T12:09:07;94775.25;;;30.95;58.64
10006;BME280;5042;42.626;23.382;2023-06-22T12:11:34;94779.50;;;30.51;59.70
10006;BME280;5042;42.626;23.382;2023-06-22T12:14:01;94775.53;;;30.34;63.07
10006;BME280;5042;42.626;23.382;2023-06-22T12:16:28;94778.84;;;30.31;60.78
10006;BME280;5042;42.626;23.382;2023-06-22T12:18:54;94773.44;;;30.31;60.30
10006;BME280;5042;42.626;23.382;2023-06-22T12:21:22;94781.56;;;30.31;64.54
10006;BME280;5042;42.626;23.382;2023-06-22T12:23:49;94790.06;;;29.55;66.15
10006;BME280;5042;42.626;23.382;2023-06-22T12:26:16;94787.16;;;28.53;75.98
10006;BME280;5042;42.626;23.382;2023-06-22T12:28:43;94788.50;;;28.13;85.09
10006;BME280;5042;42.626;23.382;2023-06-22T12:31:10;94784.53;;;27.33;91.02
10006;BME280;5042;42.626;23.382;2023-06-22T12:33:37;94784.84;;;26.97;99.12
10006;BME280;5042;42.626;23.382;2023-06-22T12:36:04;94801.31;;;26.56;100.00
10006;BME280;5042;42.626;23.382;2023-06-22T12:38:32;94786.03;;;25.81;100.00
10006;BME280;5042;42.626;23.382;2023-06-22T12:40:59;94794.00;;;25.32;100.00
10006;BME280;5042;42.626;23.382;2023-06-22T12:43:26;94808.50;;;25.00;100.00
10006;BME280;5042;42.626;23.382;2023-06-22T12:45:53;94820.22;;;24.32;100.00
10006;BME280;5042;42.626;23.382;2023-06-22T12:48:20;94828.72;;;24.19;100.00
10006;BME280;5042;42.626;23.382;2023-06-22T12:50:46;94838.09;;;24.17;100.00
10006;BME280;5042;42.626;23.382;2023-06-22T12:53:13;94851.16;;;23.98;100.00
10006;BME280;5042;42.626;23.382;2023-06-22T12:55:41;94838.75;;;23.76;100.00
10006;BME280;5042;42.626;23.382;2023-06-22T12:58:08;94842.16;;;23.71;100.00